sensor_id;sensor_type;location;lat;lon;timestamp;temperature;humidity
1948;DHT22;974;52.400;9.818;2023-12-14T00:01:30;4.60;99.90
1948;DHT22;974;52.400;9.818;2023-12-14T00:03:55;4.40;99.90
1948;DHT22;974;52.400;9.818;2023-12-14T00:06:21;4.40;99.90
1948;DHT22;974;52.400;9.818;2023-12-14T00:08:46;4.30;99.90
1948;DHT22;974;52.400;9.818;2023-12-14T00:11:12;4.50;99.90
1948;DHT22;974;52.400;9.818;2023-12-14T00:13:38;4.40;99.90
1948;DHT22;974;52.400;9.818;2023-12-14T00:16:04;4.40;99.90
1948;DHT22;974;52.400;9.818;2023-12-14T00:18:30;4.50;99.90
1948;DHT22;974;52.400;9.818;2023-12-14T00:20:55;4.50;99.90
1948;DHT22;974;52.400;9.818;2023-12-14T00:23:21;5.40;99.90
1948;DHT22;974;52.400;9.818;2023-12-14T00:25:47;4.30;99.90
1948;DHT22;974;52.400;9.818;2023-12-14T00:28:12;4.30;99.90
1948;DHT22;974;52.400;9.818;2023-12-14T00:30:39;4.40;99.90
1948;DHT22;974;52.400;9.818;2023-12-14T00:33:04;4.50;99.90
1948;DHT22;974;52.400;9.818;2023-12-14T00:35:29;4.50;99.90
1948;DHT22;974;52.400;9.818;2023-12-14T00:37:55;4.40;99.90
1948;DHT22;974;52.400;9.818;2023-12-14T00:40:20;4.50;99.90
1948;DHT22;974;52.400;9.818;2023-12-14T00:42:46;4.50;99.90
1948;DHT22;974;52.400;9.818;2023-12-14T00:45:11;4.60;99.90
1948;DHT22;974;52.400;9.818;2023-12-14T00:47:37;4.50;99.90
1948;DHT22;974;52.400;9.818;2023-12-14T00:50:03;4.50;99.90
1948;DHT22;974;52.400;9.818;2023-12-14T00:52:28;4.40;99.90
1948;DHT22;974;52.400;9.818;2023-12-14T00:54:54;4.50;99.90
1948;DHT22;974;52.400;9.818;2023-12-14T00:57:19;4.40;99.90
1948;DHT22;974;52.400;9.818;2023-12-14T00:59:45;4.50;99.90
1948;DHT22;974;52.400;9.818;2023-12-14T01:02:11;4.40;99.90
1948;DHT22;974;52.400;9.818;2023-12-14T01:04:37;4.40;99.90
1948;DHT22;974;52.400;9.818;2023-12-14T01:07:03;4.40;99.90
1948;DHT22;974;52.400;9.818;2023-12-14T01:09:29;4.30;99.90
1948;DHT22;974;52.400;9.818;2023-12-14T01:11:54;4.40;99.90
1948;DHT22;974;52.400;9.818;2023-12-14T01:14:20;4.20;99.90
1948;DHT22;974;52.400;9.818;2023-12-14T01:16:45;4.30;99.90
1948;DHT22;974;52.400;9.818;2023-12-14T01:19:11;4.40;99.90
1948;DHT22;974;52.400;9.818;2023-12-14T01:21:36;4.40;99.90
1948;DHT22;974;52.400;9.818;2023-12-14T01:24:02;4.30;99.90
1948;DHT22;974;52.400;9.818;2023-12-14T01:26:27;4.30;99.90
1948;DHT22;974;52.400;9.818;2023-12-14T01:28:53;4.20;99.90
1948;DHT22;974;52.400;9.818;2023-12-14T01:31:19;4.20;99.90
1948;DHT22;974;52.400;9.818;2023-12-14T01:33:48;4.10;99.90
1948;DHT22;974;52.400;9.818;2023-12-14T01:36:22;4.00;99.90
1948;DHT22;974;52.400;9.818;2023-12-14T01:38:48;4.10;99.90
1948;DHT22;974;52.400;9.818;2023-12-14T01:41:14;4.20;99.90
1948;DHT22;974;52.400;9.818;2023-12-14T01:43:40;4.10;99.90
1948;DHT22;974;52.400;9.818;2023-12-14T01:46:05;4.10;99.90
1948;DHT22;974;52.400;9.818;2023-12-14T01:48:31;4.20;99.90
1948;DHT22;974;52.400;9.818;2023-12-14T01:50:56;4.10;99.90
1948;DHT22;974;52.400;9.818;2023-12-14T01:53:22;4.00;99.90
1948;DHT22;974;52.400;9.818;2023-12-14T01:55:48;4.00;99.90
1948;DHT22;974;52.400;9.818;2023-12-14T01:58:13;3.90;99.90
1948;DHT22;974;52.400;9.818;2023-12-14T02:03:09;3.90;99.90
1948;DHT22;974;52.400;9.818;2023-12-14T02:05:35;4.00;99.90
1948;DHT22;974;52.400;9.818;2023-12-14T02:08:01;4.10;99.90
1948;DHT22;974;52.400;9.818;2023-12-14T02:10:26;4.00;99.90
1948;DHT22;974;52.400;9.818;2023-12-14T02:12:52;3.90;99.90
1948;DHT22;974;52.400;9.818;2023-12-14T02:15:18;4.00;99.90
1948;DHT22;974;52.400;9.818;2023-12-14T02:17:43;4.00;99.90
1948;DHT22;974;52.400;9.818;2023-12-14T02:20:09;3.90;99.90
1948;DHT22;974;52.400;9.818;2023-12-14T02:22:55;3.90;99.90
1948;DHT22;974;52.400;9.818;2023-12-14T02:25:22;4.00;99.90
1948;DHT22;974;52.400;9.818;2023-12-14T02:27:48;4.10;99.90
1948;DHT22;974;52.400;9.818;2023-12-14T02:30:14;4.10;99.90
1948;DHT22;974;52.400;9.818;2023-12-14T02:32:40;4.10;99.90
1948;DHT22;974;52.400;9.818;2023-12-14T02:35:06;4.10;99.90
1948;DHT22;974;52.400;9.818;2023-12-14T02:37:33;4.00;99.90
1948;DHT22;974;52.400;9.818;2023-12-14T02:39:59;3.80;99.90
1948;DHT22;974;52.400;9.818;2023-12-14T02:42:24;3.90;99.90
1948;DHT22;974;52.400;9.818;2023-12-14T02:44:50;4.00;99.90
1948;DHT22;974;52.400;9.818;2023-12-14T02:47:16;4.00;99.90
1948;DHT22;974;52.400;9.818;2023-12-14T02:49:42;4.00;99.90
1948;DHT22;974;52.400;9.818;2023-12-14T02:52:07;4.10;99.90
1948;DHT22;974;52.400;9.818;2023-12-14T02:54:33;4.10;99.90
1948;DHT22;974;52.400;9.818;2023-12-14T02:56:58;4.00;99.90
1948;DHT22;974;52.400;9.818;2023-12-14T02:59:24;3.90;99.90
1948;DHT22;974;52.400;9.818;2023-12-14T03:01:49;3.90;99.90
1948;DHT22;974;52.400;9.818;2023-12-14T03:04:15;3.90;99.90
1948;DHT22;974;52.400;9.818;2023-12-14T03:06:40;4.00;99.90
1948;DHT22;974;52.400;9.818;2023-12-14T03:09:06;3.90;99.90
1948;DHT22;974;52.400;9.818;2023-12-14T03:11:31;3.90;99.90
1948;DHT22;974;52.400;9.818;2023-12-14T03:13:57;3.90;99.90
1948;DHT22;974;52.400;9.818;2023-12-14T03:16:22;3.90;99.90
1948;DHT22;974;52.400;9.818;2023-12-14T03:18:48;3.90;99.90
1948;DHT22;974;52.400;9.818;2023-12-14T03:21:17;3.90;99.90
1948;DHT22;974;52.400;9.818;2023-12-14T03:23:43;3.90;99.90
1948;DHT22;974;52.400;9.818;2023-12-14T03:26:09;3.90;99.90
1948;DHT22;974;52.400;9.818;2023-12-14T03:28:34;3.80;99.90
1948;DHT22;974;52.400;9.818;2023-12-14T03:31:00;3.80;99.90
1948;DHT22;974;52.400;9.818;2023-12-14T03:33:25;3.80;99.90
1948;DHT22;974;52.400;9.818;2023-12-14T03:35:51;3.80;99.90
1948;DHT22;974;52.400;9.818;2023-12-14T03:38:16;3.80;99.90
1948;DHT22;974;52.400;9.818;2023-12-14T03:40:42;3.80;99.90
1948;DHT22;974;52.400;9.818;2023-12-14T03:43:07;3.80;99.90
1948;DHT22;974;52.400;9.818;2023-12-14T03:45:33;3.90;99.90
1948;DHT22;974;52.400;9.818;2023-12-14T03:47:58;3.90;99.90
1948;DHT22;974;52.400;9.818;2023-12-14T03:50:24;3.90;99.90
1948;DHT22;974;52.400;9.818;2023-12-14T03:52:49;4.10;99.90
1948;DHT22;974;52.400;9.818;2023-12-14T03:55:15;3.80;99.90
1948;DHT22;974;52.400;9.818;2023-12-14T03:57:41;3.90;99.90
1948;DHT22;974;52.400;9.818;2023-12-14T04:00:13;3.80;99.90
1948;DHT22;974;52.400;9.818;2023-12-14T04:02:40;3.80;99.90
1948;DHT22;974;52.400;9.818;2023-12-14T04:05:09;3.80;99.90
1948;DHT22;974;52.400;9.818;2023-12-14T04:07:38;3.70;99.90
1948;DHT22;974;52.400;9.818;2023-12-14T04:10:15;3.70;99.90
1948;DHT22;974;52.400;9.818;2023-12-14T04:12:41;3.80;99.90
1948;DHT22;974;52.400;9.818;2023-12-14T04:15:08;3.80;99.90
1948;DHT22;974;52.400;9.818;2023-12-14T04:17:34;3.70;99.90
1948;DHT22;974;52.400;9.818;2023-12-14T04:20:00;3.90;99.90
1948;DHT22;974;52.400;9.818;2023-12-14T04:22:26;3.90;99.90
1948;DHT22;974;52.400;9.818;2023-12-14T04:24:52;3.80;99.90
1948;DHT22;974;52.400;9.818;2023-12-14T04:27:17;3.80;99.90
1948;DHT22;974;52.400;9.818;2023-12-14T04:29:43;3.80;99.90
1948;DHT22;974;52.400;9.818;2023-12-14T04:32:09;3.80;99.90
1948;DHT22;974;52.400;9.818;2023-12-14T04:34:34;3.80;99.90
1948;DHT22;974;52.400;9.818;2023-12-14T04:37:00;3.90;99.90
1948;DHT22;974;52.400;9.818;2023-12-14T04:39:25;3.90;99.90
1948;DHT22;974;52.400;9.818;2023-12-14T04:41:51;3.90;99.90
1948;DHT22;974;52.400;9.818;2023-12-14T04:44:18;3.90;99.90
1948;DHT22;974;52.400;9.818;2023-12-14T04:46:44;3.90;99.90
1948;DHT22;974;52.400;9.818;2023-12-14T04:49:09;3.80;99.90
1948;DHT22;974;52.400;9.818;2023-12-14T04:51:35;3.90;99.90
1948;DHT22;974;52.400;9.818;2023-12-14T04:54:00;3.90;99.90
1948;DHT22;974;52.400;9.818;2023-12-14T04:56:26;4.00;99.90
1948;DHT22;974;52.400;9.818;2023-12-14T04:58:51;4.00;99.90
1948;DHT22;974;52.400;9.818;2023-12-14T05:01:17;3.90;99.90
1948;DHT22;974;52.400;9.818;2023-12-14T05:03:42;4.00;99.90
1948;DHT22;974;52.400;9.818;2023-12-14T05:06:07;3.80;99.90
1948;DHT22;974;52.400;9.818;2023-12-14T05:08:33;3.70;99.90
1948;DHT22;974;52.400;9.818;2023-12-14T05:10:59;3.90;99.90
1948;DHT22;974;52.400;9.818;2023-12-14T05:13:24;3.80;99.90
1948;DHT22;974;52.400;9.818;2023-12-14T05:15:51;3.90;99.90
1948;DHT22;974;52.400;9.818;2023-12-14T05:18:17;3.90;99.90
1948;DHT22;974;52.400;9.818;2023-12-14T05:20:43;3.80;99.90
1948;DHT22;974;52.400;9.818;2023-12-14T05:23:08;3.80;99.90
1948;DHT22;974;52.400;9.818;2023-12-14T05:25:34;3.90;99.90
1948;DHT22;974;52.400;9.818;2023-12-14T05:27:59;3.70;99.90
1948;DHT22;974;52.400;9.818;2023-12-14T05:30:25;3.70;99.90
1948;DHT22;974;52.400;9.818;2023-12-14T05:32:50;3.80;99.90
1948;DHT22;974;52.400;9.818;2023-12-14T05:35:16;3.90;99.90
1948;DHT22;974;52.400;9.818;2023-12-14T05:37:41;3.80;99.90
1948;DHT22;974;52.400;9.818;2023-12-14T05:40:10;3.90;99.90
1948;DHT22;974;52.400;9.818;2023-12-14T05:42:35;4.00;99.90
1948;DHT22;974;52.400;9.818;2023-12-14T05:45:01;3.90;99.90
1948;DHT22;974;52.400;9.818;2023-12-14T05:47:27;3.90;99.90
1948;DHT22;974;52.400;9.818;2023-12-14T05:49:52;3.90;99.90
1948;DHT22;974;52.400;9.818;2023-12-14T05:52:18;4.00;99.90
1948;DHT22;974;52.400;9.818;2023-12-14T05:54:43;3.90;99.90
1948;DHT22;974;52.400;9.818;2023-12-14T05:57:08;3.80;99.90
1948;DHT22;974;52.400;9.818;2023-12-14T05:59:34;3.80;99.90
1948;DHT22;974;52.400;9.818;2023-12-14T06:02:00;3.90;99.90
1948;DHT22;974;52.400;9.818;2023-12-14T06:04:27;4.00;99.90
1948;DHT22;974;52.400;9.818;2023-12-14T06:06:53;3.90;99.90
1948;DHT22;974;52.400;9.818;2023-12-14T06:09:19;3.90;99.90
1948;DHT22;974;52.400;9.818;2023-12-14T06:11:51;4.00;99.90
1948;DHT22;974;52.400;9.818;2023-12-14T06:14:17;4.00;99.90
1948;DHT22;974;52.400;9.818;2023-12-14T06:16:42;3.90;99.90
1948;DHT22;974;52.400;9.818;2023-12-14T06:19:08;3.90;99.90
1948;DHT22;974;52.400;9.818;2023-12-14T06:21:33;3.80;99.90
1948;DHT22;974;52.400;9.818;2023-12-14T06:23:59;3.80;99.90
1948;DHT22;974;52.400;9.818;2023-12-14T06:26:25;3.80;99.90
1948;DHT22;974;52.400;9.818;2023-12-14T06:28:50;3.80;99.90
1948;DHT22;974;52.400;9.818;2023-12-14T06:31:17;3.90;99.90
1948;DHT22;974;52.400;9.818;2023-12-14T06:33:43;3.90;99.90
1948;DHT22;974;52.400;9.818;2023-12-14T06:36:09;3.80;99.90
1948;DHT22;974;52.400;9.818;2023-12-14T06:38:36;3.90;99.90
1948;DHT22;974;52.400;9.818;2023-12-14T06:41:02;3.90;99.90
1948;DHT22;974;52.400;9.818;2023-12-14T06:43:28;3.80;99.90
1948;DHT22;974;52.400;9.818;2023-12-14T06:45:54;3.80;99.90
1948;DHT22;974;52.400;9.818;2023-12-14T06:48:20;3.90;99.90
1948;DHT22;974;52.400;9.818;2023-12-14T06:50:45;3.80;99.90
1948;DHT22;974;52.400;9.818;2023-12-14T06:53:11;4.00;99.90
1948;DHT22;974;52.400;9.818;2023-12-14T06:55:36;3.80;99.90
1948;DHT22;974;52.400;9.818;2023-12-14T06:58:02;3.70;99.90
1948;DHT22;974;52.400;9.818;2023-12-14T07:00:27;3.70;99.90
1948;DHT22;974;52.400;9.818;2023-12-14T07:02:54;3.70;99.90
1948;DHT22;974;52.400;9.818;2023-12-14T07:05:20;3.70;99.90
1948;DHT22;974;52.400;9.818;2023-12-14T07:07:45;3.80;99.90
1948;DHT22;974;52.400;9.818;2023-12-14T07:10:11;3.80;99.90
1948;DHT22;974;52.400;9.818;2023-12-14T07:12:36;3.90;99.90
1948;DHT22;974;52.400;9.818;2023-12-14T07:15:02;3.90;99.90
1948;DHT22;974;52.400;9.818;2023-12-14T07:17:27;3.80;99.90
1948;DHT22;974;52.400;9.818;2023-12-14T07:19:53;3.80;99.90
1948;DHT22;974;52.400;9.818;2023-12-14T07:22:19;3.80;99.90
1948;DHT22;974;52.400;9.818;2023-12-14T07:24:44;3.90;99.90
1948;DHT22;974;52.400;9.818;2023-12-14T07:27:10;3.90;99.90
1948;DHT22;974;52.400;9.818;2023-12-14T07:29:35;3.90;99.90
1948;DHT22;974;52.400;9.818;2023-12-14T07:32:01;3.80;99.90
1948;DHT22;974;52.400;9.818;2023-12-14T07:34:26;3.80;99.90
1948;DHT22;974;52.400;9.818;2023-12-14T07:36:53;3.90;99.90
1948;DHT22;974;52.400;9.818;2023-12-14T07:39:19;3.80;99.90
1948;DHT22;974;52.400;9.818;2023-12-14T07:41:45;3.90;99.90
1948;DHT22;974;52.400;9.818;2023-12-14T07:44:10;3.80;99.90
1948;DHT22;974;52.400;9.818;2023-12-14T07:46:36;3.80;99.90
1948;DHT22;974;52.400;9.818;2023-12-14T07:49:04;3.90;99.90
1948;DHT22;974;52.400;9.818;2023-12-14T07:51:30;3.80;99.90
1948;DHT22;974;52.400;9.818;2023-12-14T07:53:55;3.80;99.90
1948;DHT22;974;52.400;9.818;2023-12-14T07:56:21;3.80;99.90
1948;DHT22;974;52.400;9.818;2023-12-14T07:58:50;3.80;99.90
1948;DHT22;974;52.400;9.818;2023-12-14T08:01:16;3.80;99.90
1948;DHT22;974;52.400;9.818;2023-12-14T08:03:41;3.90;99.90
1948;DHT22;974;52.400;9.818;2023-12-14T08:06:07;3.80;99.90
1948;DHT22;974;52.400;9.818;2023-12-14T08:08:32;3.70;99.90
1948;DHT22;974;52.400;9.818;2023-12-14T08:10:58;3.80;99.90
1948;DHT22;974;52.400;9.818;2023-12-14T08:13:23;3.80;99.90
1948;DHT22;974;52.400;9.818;2023-12-14T08:15:49;3.70;99.90
1948;DHT22;974;52.400;9.818;2023-12-14T08:18:14;3.90;99.90
1948;DHT22;974;52.400;9.818;2023-12-14T08:20:40;3.90;99.90
1948;DHT22;974;52.400;9.818;2023-12-14T08:23:05;3.80;99.90
1948;DHT22;974;52.400;9.818;2023-12-14T08:25:30;3.70;99.90
1948;DHT22;974;52.400;9.818;2023-12-14T08:27:56;3.80;99.90
1948;DHT22;974;52.400;9.818;2023-12-14T08:30:21;3.90;99.90
1948;DHT22;974;52.400;9.818;2023-12-14T08:32:49;3.80;99.90
1948;DHT22;974;52.400;9.818;2023-12-14T08:35:14;3.80;99.90
1948;DHT22;974;52.400;9.818;2023-12-14T08:37:40;3.90;99.90
1948;DHT22;974;52.400;9.818;2023-12-14T08:40:06;3.90;99.90
1948;DHT22;974;52.400;9.818;2023-12-14T08:42:32;3.90;99.90
1948;DHT22;974;52.400;9.818;2023-12-14T08:44:58;3.80;99.90
1948;DHT22;974;52.400;9.818;2023-12-14T08:47:23;3.70;99.90
1948;DHT22;974;52.400;9.818;2023-12-14T08:49:49;3.80;99.90
1948;DHT22;974;52.400;9.818;2023-12-14T08:52:14;3.80;99.90
1948;DHT22;974;52.400;9.818;2023-12-14T08:54:40;3.90;99.90
1948;DHT22;974;52.400;9.818;2023-12-14T08:57:08;4.00;99.90
1948;DHT22;974;52.400;9.818;2023-12-14T08:59:34;4.00;99.90
1948;DHT22;974;52.400;9.818;2023-12-14T09:01:59;3.90;99.90
1948;DHT22;974;52.400;9.818;2023-12-14T09:04:25;3.90;99.90
1948;DHT22;974;52.400;9.818;2023-12-14T09:06:50;4.00;99.90
1948;DHT22;974;52.400;9.818;2023-12-14T09:09:16;4.00;99.90
1948;DHT22;974;52.400;9.818;2023-12-14T09:11:44;4.00;99.90
1948;DHT22;974;52.400;9.818;2023-12-14T09:14:09;4.00;99.90
1948;DHT22;974;52.400;9.818;2023-12-14T09:16:35;4.00;99.90
1948;DHT22;974;52.400;9.818;2023-12-14T09:19:00;4.10;99.90
1948;DHT22;974;52.400;9.818;2023-12-14T09:21:26;4.10;99.90
1948;DHT22;974;52.400;9.818;2023-12-14T09:23:51;4.00;99.90
1948;DHT22;974;52.400;9.818;2023-12-14T09:26:19;4.00;99.90
1948;DHT22;974;52.400;9.818;2023-12-14T09:28:44;4.00;99.90
1948;DHT22;974;52.400;9.818;2023-12-14T09:31:10;3.90;99.90
1948;DHT22;974;52.400;9.818;2023-12-14T09:33:36;3.90;99.90
1948;DHT22;974;52.400;9.818;2023-12-14T09:36:02;3.90;99.90
1948;DHT22;974;52.400;9.818;2023-12-14T09:38:27;4.00;99.90
1948;DHT22;974;52.400;9.818;2023-12-14T09:40:53;4.00;99.90
1948;DHT22;974;52.400;9.818;2023-12-14T09:43:19;4.00;99.90
1948;DHT22;974;52.400;9.818;2023-12-14T09:45:46;4.10;99.90
1948;DHT22;974;52.400;9.818;2023-12-14T09:48:12;4.10;99.90
1948;DHT22;974;52.400;9.818;2023-12-14T09:50:39;4.20;99.90
1948;DHT22;974;52.400;9.818;2023-12-14T09:53:05;4.10;99.90
1948;DHT22;974;52.400;9.818;2023-12-14T09:55:31;4.10;99.90
1948;DHT22;974;52.400;9.818;2023-12-14T09:57:57;4.10;99.90
1948;DHT22;974;52.400;9.818;2023-12-14T10:00:39;4.10;99.90
1948;DHT22;974;52.400;9.818;2023-12-14T10:03:18;4.10;99.90
1948;DHT22;974;52.400;9.818;2023-12-14T10:05:45;4.10;99.90
1948;DHT22;974;52.400;9.818;2023-12-14T10:08:10;4.10;99.90
1948;DHT22;974;52.400;9.818;2023-12-14T10:10:36;4.10;99.90
1948;DHT22;974;52.400;9.818;2023-12-14T10:13:01;4.20;99.90
1948;DHT22;974;52.400;9.818;2023-12-14T10:15:27;4.20;99.90
1948;DHT22;974;52.400;9.818;2023-12-14T10:17:53;4.20;99.90
1948;DHT22;974;52.400;9.818;2023-12-14T10:20:23;4.20;99.90
1948;DHT22;974;52.400;9.818;2023-12-14T10:22:49;4.30;99.90
1948;DHT22;974;52.400;9.818;2023-12-14T10:25:15;4.20;99.90
1948;DHT22;974;52.400;9.818;2023-12-14T10:27:40;4.20;99.90
1948;DHT22;974;52.400;9.818;2023-12-14T10:30:07;4.30;99.90
1948;DHT22;974;52.400;9.818;2023-12-14T10:32:34;4.30;99.90
1948;DHT22;974;52.400;9.818;2023-12-14T10:35:00;4.30;99.90
1948;DHT22;974;52.400;9.818;2023-12-14T10:37:26;4.40;99.90
1948;DHT22;974;52.400;9.818;2023-12-14T10:39:51;4.30;99.90
1948;DHT22;974;52.400;9.818;2023-12-14T10:42:21;4.30;99.90
1948;DHT22;974;52.400;9.818;2023-12-14T10:44:52;4.30;99.90
1948;DHT22;974;52.400;9.818;2023-12-14T10:47:19;4.20;99.90
1948;DHT22;974;52.400;9.818;2023-12-14T10:49:48;4.20;99.90
1948;DHT22;974;52.400;9.818;2023-12-14T10:52:16;4.20;99.90
1948;DHT22;974;52.400;9.818;2023-12-14T10:54:42;4.40;99.90
1948;DHT22;974;52.400;9.818;2023-12-14T10:57:09;4.30;99.90
1948;DHT22;974;52.400;9.818;2023-12-14T10:59:35;4.40;99.90
1948;DHT22;974;52.400;9.818;2023-12-14T11:02:07;4.40;99.90
1948;DHT22;974;52.400;9.818;2023-12-14T11:04:56;4.30;99.90
1948;DHT22;974;52.400;9.818;2023-12-14T11:07:50;4.30;99.90
1948;DHT22;974;52.400;9.818;2023-12-14T11:10:21;4.30;99.90
1948;DHT22;974;52.400;9.818;2023-12-14T11:13:00;4.20;99.90
1948;DHT22;974;52.400;9.818;2023-12-14T11:15:26;4.30;99.90
1948;DHT22;974;52.400;9.818;2023-12-14T11:20:51;4.30;99.90
1948;DHT22;974;52.400;9.818;2023-12-14T11:25:52;4.20;99.90
1948;DHT22;974;52.400;9.818;2023-12-14T11:28:20;4.30;99.90
1948;DHT22;974;52.400;9.818;2023-12-14T11:30:46;4.30;99.90
1948;DHT22;974;52.400;9.818;2023-12-14T11:33:12;4.30;99.90
1948;DHT22;974;52.400;9.818;2023-12-14T11:35:38;4.30;99.90
1948;DHT22;974;52.400;9.818;2023-12-14T11:38:03;4.40;99.90
1948;DHT22;974;52.400;9.818;2023-12-14T11:40:36;4.40;99.90
1948;DHT22;974;52.400;9.818;2023-12-14T11:43:02;4.40;99.90
1948;DHT22;974;52.400;9.818;2023-12-14T11:45:38;4.30;99.90
1948;DHT22;974;52.400;9.818;2023-12-14T11:48:11;4.30;99.90
1948;DHT22;974;52.400;9.818;2023-12-14T11:50:38;4.30;99.90
1948;DHT22;974;52.400;9.818;2023-12-14T11:53:04;4.30;99.90
1948;DHT22;974;52.400;9.818;2023-12-14T11:55:31;4.30;99.90
1948;DHT22;974;52.400;9.818;2023-12-14T11:57:57;4.30;99.90
1948;DHT22;974;52.400;9.818;2023-12-14T12:00:27;4.40;99.90
1948;DHT22;974;52.400;9.818;2023-12-14T12:03:13;4.40;99.90
1948;DHT22;974;52.400;9.818;2023-12-14T12:05:45;4.50;99.90
1948;DHT22;974;52.400;9.818;2023-12-14T12:08:12;4.40;99.90
1948;DHT22;974;52.400;9.818;2023-12-14T12:10:38;4.40;99.90
1948;DHT22;974;52.400;9.818;2023-12-14T12:13:07;4.40;99.90
1948;DHT22;974;52.400;9.818;2023-12-14T12:15:34;4.40;99.90
1948;DHT22;974;52.400;9.818;2023-12-14T12:18:09;4.40;99.90
1948;DHT22;974;52.400;9.818;2023-12-14T12:20:36;4.40;99.90
1948;DHT22;974;52.400;9.818;2023-12-14T12:23:02;4.50;99.90
1948;DHT22;974;52.400;9.818;2023-12-14T12:25:29;4.50;99.90
1948;DHT22;974;52.400;9.818;2023-12-14T12:27:55;4.50;99.90
1948;DHT22;974;52.400;9.818;2023-12-14T12:30:22;4.40;99.90
1948;DHT22;974;52.400;9.818;2023-12-14T12:32:48;4.40;99.90
1948;DHT22;974;52.400;9.818;2023-12-14T12:35:15;4.50;99.90
1948;DHT22;974;52.400;9.818;2023-12-14T12:37:40;4.50;99.90
1948;DHT22;974;52.400;9.818;2023-12-14T12:40:06;4.50;99.90
1948;DHT22;974;52.400;9.818;2023-12-14T12:42:33;4.50;99.90
1948;DHT22;974;52.400;9.818;2023-12-14T12:44:58;4.50;99.90
1948;DHT22;974;52.400;9.818;2023-12-14T12:47:24;4.50;99.90
1948;DHT22;974;52.400;9.818;2023-12-14T12:49:49;4.50;99.90
1948;DHT22;974;52.400;9.818;2023-12-14T12:52:15;4.50;99.90
1948;DHT22;974;52.400;9.818;2023-12-14T12:54:40;4.60;99.90
1948;DHT22;974;52.400;9.818;2023-12-14T12:57:06;4.50;99.90
1948;DHT22;974;52.400;9.818;2023-12-14T12:59:31;4.60;99.90
1948;DHT22;974;52.400;9.818;2023-12-14T13:01:57;4.50;99.90
1948;DHT22;974;52.400;9.818;2023-12-14T13:04:23;4.50;99.90
1948;DHT22;974;52.400;9.818;2023-12-14T13:06:50;4.50;99.90
1948;DHT22;974;52.400;9.818;2023-12-14T13:09:16;4.50;99.90
1948;DHT22;974;52.400;9.818;2023-12-14T13:11:45;4.50;99.90
1948;DHT22;974;52.400;9.818;2023-12-14T13:14:11;4.50;99.90
1948;DHT22;974;52.400;9.818;2023-12-14T13:16:38;4.50;99.90
1948;DHT22;974;52.400;9.818;2023-12-14T13:19:04;4.50;99.90
1948;DHT22;974;52.400;9.818;2023-12-14T13:21:31;4.60;99.90
1948;DHT22;974;52.400;9.818;2023-12-14T13:23:57;5.50;99.90
1948;DHT22;974;52.400;9.818;2023-12-14T13:26:23;4.50;99.90
1948;DHT22;974;52.400;9.818;2023-12-14T13:28:50;4.60;99.90
1948;DHT22;974;52.400;9.818;2023-12-14T13:31:16;4.60;99.90
1948;DHT22;974;52.400;9.818;2023-12-14T13:33:41;4.60;99.90
1948;DHT22;974;52.400;9.818;2023-12-14T13:36:07;4.60;99.90
1948;DHT22;974;52.400;9.818;2023-12-14T13:38:34;4.60;99.90
1948;DHT22;974;52.400;9.818;2023-12-14T13:41:01;4.70;99.90
1948;DHT22;974;52.400;9.818;2023-12-14T13:43:28;4.60;99.90
1948;DHT22;974;52.400;9.818;2023-12-14T13:45:54;4.60;99.90
1948;DHT22;974;52.400;9.818;2023-12-14T13:48:23;4.70;99.90
1948;DHT22;974;52.400;9.818;2023-12-14T13:50:48;4.60;99.90
1948;DHT22;974;52.400;9.818;2023-12-14T13:53:14;4.60;99.90
1948;DHT22;974;52.400;9.818;2023-12-14T13:55:39;4.60;99.90
1948;DHT22;974;52.400;9.818;2023-12-14T13:58:05;4.50;99.90
1948;DHT22;974;52.400;9.818;2023-12-14T14:00:30;4.60;99.90
1948;DHT22;974;52.400;9.818;2023-12-14T14:02:56;4.50;99.90
1948;DHT22;974;52.400;9.818;2023-12-14T14:05:22;4.50;99.90
1948;DHT22;974;52.400;9.818;2023-12-14T14:07:47;4.50;99.90
1948;DHT22;974;52.400;9.818;2023-12-14T14:10:13;4.60;99.90
1948;DHT22;974;52.400;9.818;2023-12-14T14:12:39;4.50;99.90
1948;DHT22;974;52.400;9.818;2023-12-14T14:15:05;4.50;99.90
1948;DHT22;974;52.400;9.818;2023-12-14T14:17:30;4.50;99.90
1948;DHT22;974;52.400;9.818;2023-12-14T14:19:56;4.60;99.90
1948;DHT22;974;52.400;9.818;2023-12-14T14:22:22;4.60;99.90
1948;DHT22;974;52.400;9.818;2023-12-14T14:24:47;4.60;99.90
1948;DHT22;974;52.400;9.818;2023-12-14T14:27:13;4.60;99.90
1948;DHT22;974;52.400;9.818;2023-12-14T14:29:38;4.60;99.90
1948;DHT22;974;52.400;9.818;2023-12-14T14:32:04;4.60;99.90
1948;DHT22;974;52.400;9.818;2023-12-14T14:34:29;4.60;99.90
1948;DHT22;974;52.400;9.818;2023-12-14T14:36:55;4.60;99.90
1948;DHT22;974;52.400;9.818;2023-12-14T14:39:21;4.60;99.90
1948;DHT22;974;52.400;9.818;2023-12-14T14:41:46;4.60;99.90
1948;DHT22;974;52.400;9.818;2023-12-14T14:44:12;4.70;99.90
1948;DHT22;974;52.400;9.818;2023-12-14T14:46:37;4.70;99.90
1948;DHT22;974;52.400;9.818;2023-12-14T14:49:03;4.70;99.90
1948;DHT22;974;52.400;9.818;2023-12-14T14:51:29;4.60;99.90
1948;DHT22;974;52.400;9.818;2023-12-14T14:53:56;4.60;99.90
1948;DHT22;974;52.400;9.818;2023-12-14T14:56:21;4.60;99.90
1948;DHT22;974;52.400;9.818;2023-12-14T14:58:47;4.60;99.90
1948;DHT22;974;52.400;9.818;2023-12-14T15:01:12;4.60;99.90
1948;DHT22;974;52.400;9.818;2023-12-14T15:03:38;4.60;99.90
1948;DHT22;974;52.400;9.818;2023-12-14T15:06:04;4.60;99.90
1948;DHT22;974;52.400;9.818;2023-12-14T15:08:29;4.70;99.90
1948;DHT22;974;52.400;9.818;2023-12-14T15:10:55;4.60;99.90
1948;DHT22;974;52.400;9.818;2023-12-14T15:13:23;4.60;99.90
1948;DHT22;974;52.400;9.818;2023-12-14T15:15:49;4.50;99.90
1948;DHT22;974;52.400;9.818;2023-12-14T15:18:15;4.60;99.90
1948;DHT22;974;52.400;9.818;2023-12-14T15:20:40;4.60;99.90
1948;DHT22;974;52.400;9.818;2023-12-14T15:23:07;4.60;99.90
1948;DHT22;974;52.400;9.818;2023-12-14T15:25:33;4.60;99.90
1948;DHT22;974;52.400;9.818;2023-12-14T15:27:59;4.60;99.90
1948;DHT22;974;52.400;9.818;2023-12-14T15:30:24;4.50;99.90
1948;DHT22;974;52.400;9.818;2023-12-14T15:32:50;4.60;99.90
1948;DHT22;974;52.400;9.818;2023-12-14T15:35:15;4.60;99.90
1948;DHT22;974;52.400;9.818;2023-12-14T15:37:42;4.70;99.90
1948;DHT22;974;52.400;9.818;2023-12-14T15:40:08;4.60;99.90
1948;DHT22;974;52.400;9.818;2023-12-14T15:42:34;4.60;99.90
1948;DHT22;974;52.400;9.818;2023-12-14T15:44:59;4.60;99.90
1948;DHT22;974;52.400;9.818;2023-12-14T15:47:25;4.60;99.90
1948;DHT22;974;52.400;9.818;2023-12-14T15:49:50;4.60;99.90
1948;DHT22;974;52.400;9.818;2023-12-14T15:52:16;4.60;99.90
1948;DHT22;974;52.400;9.818;2023-12-14T15:54:41;4.60;99.90
1948;DHT22;974;52.400;9.818;2023-12-14T15:57:07;4.60;99.90
1948;DHT22;974;52.400;9.818;2023-12-14T15:59:32;4.60;99.90
1948;DHT22;974;52.400;9.818;2023-12-14T16:01:58;4.50;99.90
1948;DHT22;974;52.400;9.818;2023-12-14T16:04:24;4.60;99.90
1948;DHT22;974;52.400;9.818;2023-12-14T16:06:49;4.50;99.90
1948;DHT22;974;52.400;9.818;2023-12-14T16:09:15;4.40;99.90
1948;DHT22;974;52.400;9.818;2023-12-14T16:11:41;4.30;99.90
1948;DHT22;974;52.400;9.818;2023-12-14T16:14:07;4.20;99.90
1948;DHT22;974;52.400;9.818;2023-12-14T16:16:33;4.10;99.90
1948;DHT22;974;52.400;9.818;2023-12-14T16:18:58;4.10;99.90
1948;DHT22;974;52.400;9.818;2023-12-14T16:21:23;4.10;99.90
1948;DHT22;974;52.400;9.818;2023-12-14T16:23:49;4.10;99.90
1948;DHT22;974;52.400;9.818;2023-12-14T16:26:15;4.00;99.90
1948;DHT22;974;52.400;9.818;2023-12-14T16:28:41;3.90;99.90
1948;DHT22;974;52.400;9.818;2023-12-14T16:31:07;3.80;99.90
1948;DHT22;974;52.400;9.818;2023-12-14T16:33:33;3.80;99.90
1948;DHT22;974;52.400;9.818;2023-12-14T16:36:02;3.90;99.90